Time;durP1;ratioP1;P1;durP2;ratioP2;P2;SDS_P1;SDS_P2;PMS_P1;PMS_P2;Temp;Humidity;BMP_temperature;BMP_pressure;BME280_temperature;BME280_humidity;BME280_pressure;Samples;Min_cycle;Max_cycle;Signal;HPM_P1;HPM_P2
2021/10/29 00:01:11;;;;;;;3.60;3.30;;;;;;;;;;5056552;28;20217;-64
2021/10/29 00:03:45;;;;;;;3.37;3.07;;;;;;;;;;5030972;28;20198;-64
2021/10/29 00:06:17;;;;;;;3.50;3.20;;;;;;;;;;5060433;28;20205;-64
2021/10/29 00:08:48;;;;;;;4.33;3.30;;;;;;;;;;5052870;28;20197;-64
2021/10/29 00:11:21;;;;;;;3.60;3.30;;;;;;;;;;5059216;28;20225;-64
2021/10/29 00:13:52;;;;;;;3.63;3.00;;;;;;;;;;5062014;28;20201;-64
2021/10/29 00:16:22;;;;;;;3.23;3.03;;;;;;;;;;5063036;28;20274;-64
2021/10/29 00:18:56;;;;;;;3.60;3.30;;;;;;;;;;5047965;28;20187;-64
2021/10/29 00:21:27;;;;;;;3.30;3.00;;;;;;;;;;5061479;28;20753;-64
2021/10/29 00:23:57;;;;;;;3.10;2.80;;;;;;;;;;5062070;28;20237;-64
2021/10/29 00:26:28;;;;;;;3.47;3.00;;;;;;;;;;5058244;28;20206;-64
2021/10/29 00:28:58;;;;;;;3.43;3.13;;;;;;;;;;5050690;28;20205;-64
2021/10/29 00:31:30;;;;;;;3.17;2.97;;;;;;;;;;5058283;28;20230;-64
2021/10/29 00:34:01;;;;;;;3.20;2.97;;;;;;;;;;5063641;28;20205;-64
2021/10/29 00:36:33;;;;;;;3.30;3.00;;;;;;;;;;5053226;28;20220;-64
2021/10/29 00:39:04;;;;;;;3.00;2.80;;;;;;;;;;5048780;28;20189;-64
2021/10/29 00:41:36;;;;;;;3.60;3.23;;;;;;;;;;5044441;28;20221;-64
2021/10/29 00:44:12;;;;;;;3.20;2.90;;;;;;;;;;5048643;28;20198;-64
2021/10/29 00:46:41;;;;;;;3.07;2.87;;;;;;;;;;5059921;28;20203;-64
2021/10/29 00:49:11;;;;;;;3.30;3.00;;;;;;;;;;5062755;28;20228;-64
2021/10/29 00:51:39;;;;;;;3.27;2.97;;;;;;;;;;5060387;28;20217;-64
2021/10/29 00:54:08;;;;;;;4.57;2.90;;;;;;;;;;5065525;28;20582;-64
2021/10/29 00:56:39;;;;;;;3.27;2.97;;;;;;;;;;5050206;28;20197;-64
2021/10/29 00:59:12;;;;;;;3.33;3.03;;;;;;;;;;5064436;28;20203;-65
2021/10/29 01:01:43;;;;;;;2.90;2.70;;;;;;;;;;5055239;28;20235;-64
2021/10/29 01:04:15;;;;;;;2.80;2.60;;;;;;;;;;5065177;28;20675;-64
2021/10/29 01:06:49;;;;;;;3.40;2.80;;;;;;;;;;5046891;28;20211;-64
2021/10/29 01:09:24;;;;;;;3.37;3.07;;;;;;;;;;5060560;28;20202;-64
2021/10/29 01:11:56;;;;;;;2.97;2.77;;;;;;;;;;5061232;28;20688;-64
2021/10/29 01:14:28;;;;;;;3.67;3.10;;;;;;;;;;5057698;28;20222;-64
2021/10/29 01:17:03;;;;;;;3.33;3.03;;;;;;;;;;5057831;28;20202;-64
2021/10/29 01:19:34;;;;;;;2.80;2.60;;;;;;;;;;5060984;28;20209;-64
2021/10/29 01:22:08;;;;;;;3.50;3.20;;;;;;;;;;5048391;28;20205;-64
2021/10/29 01:24:37;;;;;;;3.80;3.50;;;;;;;;;;5055896;28;20688;-64
2021/10/29 01:27:12;;;;;;;3.43;3.10;;;;;;;;;;5068063;28;20198;-64
2021/10/29 01:29:46;;;;;;;3.17;2.80;;;;;;;;;;5041237;28;20564;-64
2021/10/29 01:32:19;;;;;;;3.67;2.77;;;;;;;;;;5065958;28;20635;-65
2021/10/29 01:34:51;;;;;;;2.90;2.70;;;;;;;;;;5061854;28;20198;-64
2021/10/29 01:37:21;;;;;;;3.13;2.83;;;;;;;;;;5046893;28;20210;-64
2021/10/29 01:39:54;;;;;;;3.17;2.87;;;;;;;;;;5061406;28;20565;-65
2021/10/29 01:42:25;;;;;;;3.63;3.33;;;;;;;;;;5067570;28;20210;-64
2021/10/29 01:44:56;;;;;;;4.10;3.20;;;;;;;;;;5061429;28;20651;-64
2021/10/29 01:47:27;;;;;;;3.40;3.10;;;;;;;;;;5045730;28;20202;-64
2021/10/29 01:49:59;;;;;;;3.37;3.07;;;;;;;;;;5048951;28;20294;-64
2021/10/29 01:52:29;;;;;;;3.33;3.03;;;;;;;;;;5066881;28;20229;-64
2021/10/29 01:55:00;;;;;;;3.10;2.80;;;;;;;;;;5057779;28;20202;-64
2021/10/29 01:57:29;;;;;;;3.00;2.70;;;;;;;;;;5060931;28;20523;-64
2021/10/29 01:59:57;;;;;;;3.30;3.10;;;;;;;;;;5042048;28;20243;-64
2021/10/29 02:02:26;;;;;;;2.87;2.57;;;;;;;;;;5062827;28;20218;-64
2021/10/29 02:04:58;;;;;;;2.80;2.60;;;;;;;;;;5066493;28;20202;-64
2021/10/29 02:07:29;;;;;;;3.43;3.10;;;;;;;;;;5061664;28;20220;-64
2021/10/29 02:09:58;;;;;;;3.70;2.90;;;;;;;;;;5065215;28;20534;-64
2021/10/29 02:12:29;;;;;;;3.50;3.20;;;;;;;;;;5061509;28;20226;-64
2021/10/29 02:15:03;;;;;;;3.30;3.00;;;;;;;;;;5057318;28;20203;-64
2021/10/29 02:17:35;;;;;;;3.23;2.93;;;;;;;;;;5062319;28;20209;-64
2021/10/29 02:20:07;;;;;;;3.20;2.90;;;;;;;;;;5069502;28;20190;-64
2021/10/29 02:22:38;;;;;;;3.93;3.10;;;;;;;;;;5059306;28;20563;-64
2021/10/29 02:25:06;;;;;;;2.80;2.57;;;;;;;;;;5063262;28;20707;-64
2021/10/29 02:27:36;;;;;;;3.43;3.13;;;;;;;;;;5056302;28;20217;-64
2021/10/29 02:30:07;;;;;;;3.63;2.97;;;;;;;;;;5067379;28;20197;-64
2021/10/29 02:32:39;;;;;;;3.50;3.20;;;;;;;;;;5060416;28;20256;-64
2021/10/29 02:35:11;;;;;;;3.03;2.73;;;;;;;;;;5036322;28;20202;-64
2021/10/29 02:37:42;;;;;;;3.47;3.00;;;;;;;;;;5055273;28;20698;-64
2021/10/29 02:40:14;;;;;;;3.37;3.03;;;;;;;;;;5068920;28;20202;-64
2021/10/29 02:42:46;;;;;;;3.27;2.97;;;;;;;;;;5063773;28;20275;-64
2021/10/29 02:45:16;;;;;;;3.30;3.10;;;;;;;;;;5067942;28;20205;-64
2021/10/29 02:47:47;;;;;;;3.33;2.80;;;;;;;;;;5059606;28;20271;-64
2021/10/29 02:50:21;;;;;;;3.10;2.90;;;;;;;;;;5047537;28;20209;-64
2021/10/29 02:53:04;;;;;;;3.00;2.80;;;;;;;;;;5067212;28;20222;-64
2021/10/29 02:55:35;;;;;;;3.23;3.00;;;;;;;;;;5064085;28;20203;-64
2021/10/29 02:58:08;;;;;;;2.90;2.60;;;;;;;;;;5067295;28;20206;-64
2021/10/29 03:00:41;;;;;;;3.17;2.80;;;;;;;;;;5056683;28;20214;-65
2021/10/29 03:03:14;;;;;;;3.47;3.17;;;;;;;;;;5067798;28;20197;-64
2021/10/29 03:05:43;;;;;;;3.10;2.90;;;;;;;;;;5056779;28;20204;-64
2021/10/29 03:08:13;;;;;;;3.17;2.90;;;;;;;;;;5067818;28;20309;-64
2021/10/29 03:10:41;;;;;;;3.60;3.30;;;;;;;;;;5062435;28;20194;-64
2021/10/29 03:13:09;;;;;;;3.53;3.23;;;;;;;;;;5053610;28;20736;-64
2021/10/29 03:15:41;;;;;;;3.20;2.90;;;;;;;;;;5059832;28;20437;-64
2021/10/29 03:18:12;;;;;;;3.30;3.00;;;;;;;;;;5050923;28;20209;-64
2021/10/29 03:20:43;;;;;;;4.10;3.27;;;;;;;;;;5062412;28;20229;-64
2021/10/29 03:23:19;;;;;;;3.13;2.83;;;;;;;;;;5052628;28;20284;-64
2021/10/29 03:25:52;;;;;;;2.80;2.60;;;;;;;;;;5030478;28;20226;-64
2021/10/29 03:28:27;;;;;;;3.87;2.87;;;;;;;;;;5036536;28;20222;-64
2021/10/29 03:31:01;;;;;;;2.73;2.53;;;;;;;;;;5040139;28;20209;-65
2021/10/29 03:33:38;;;;;;;3.03;2.83;;;;;;;;;;5038286;28;20566;-65
2021/10/29 03:36:08;;;;;;;3.03;2.70;;;;;;;;;;5038869;28;20618;-64
2021/10/29 03:41:31;;;;;;;3.20;2.90;;;;;;;;;;5043636;28;20198;-64
2021/10/29 03:44:21;;;;;;;2.70;2.50;;;;;;;;;;5042896;28;20195;-65
2021/10/29 03:46:52;;;;;;;2.83;2.60;;;;;;;;;;5048058;28;20245;-64
2021/10/29 03:50:02;;;;;;;3.20;2.90;;;;;;;;;;5039772;28;20224;-64
2021/10/29 03:52:29;;;;;;;3.10;2.80;;;;;;;;;;5032051;28;20229;-64
2021/10/29 03:55:07;;;;;;;2.80;2.60;;;;;;;;;;5038880;28;20191;-64
2021/10/29 03:57:49;;;;;;;3.10;2.80;;;;;;;;;;5036804;28;20213;-64
2021/10/29 04:00:28;;;;;;;3.30;3.00;;;;;;;;;;5043648;28;20210;-64
2021/10/29 04:03:02;;;;;;;3.27;3.00;;;;;;;;;;5054634;28;20297;-64
2021/10/29 04:05:31;;;;;;;3.97;2.70;;;;;;;;;;5055834;28;20293;-64
2021/10/29 04:08:03;;;;;;;3.00;2.70;;;;;;;;;;5056486;28;20745;-64
2021/10/29 04:10:39;;;;;;;3.57;2.90;;;;;;;;;;5058877;28;20202;-64
2021/10/29 04:13:14;;;;;;;2.73;2.50;;;;;;;;;;5050281;28;20234;-64
2021/10/29 04:15:43;;;;;;;2.80;2.60;;;;;;;;;;5055547;28;20194;-64
2021/10/29 04:18:14;;;;;;;2.63;2.43;;;;;;;;;;5015304;28;20213;-64
2021/10/29 04:20:44;;;;;;;3.10;2.80;;;;;;;;;;5029777;28;20209;-64
2021/10/29 04:23:14;;;;;;;3.10;2.80;;;;;;;;;;5023514;28;20241;-64
2021/10/29 04:25:57;;;;;;;2.83;2.63;;;;;;;;;;5045084;28;20321;-64
2021/10/29 04:28:35;;;;;;;3.27;2.97;;;;;;;;;;5059090;28;20240;-64
2021/10/29 04:31:15;;;;;;;2.90;2.60;;;;;;;;;;5063808;28;20205;-64
2021/10/29 04:33:57;;;;;;;3.20;2.90;;;;;;;;;;5058470;28;20762;-64
2021/10/29 04:36:27;;;;;;;2.97;2.70;;;;;;;;;;5045178;28;20268;-64
2021/10/29 04:39:01;;;;;;;3.03;2.73;;;;;;;;;;5055470;28;20267;-64
2021/10/29 04:41:29;;;;;;;2.70;2.50;;;;;;;;;;5063620;28;20624;-64
2021/10/29 04:44:00;;;;;;;2.90;2.70;;;;;;;;;;5057732;28;20201;-64
2021/10/29 04:46:31;;;;;;;3.10;2.70;;;;;;;;;;5047953;28;20245;-64
2021/10/29 04:49:02;;;;;;;2.90;2.70;;;;;;;;;;5039212;28;20641;-64
2021/10/29 04:51:32;;;;;;;2.97;2.77;;;;;;;;;;5045678;28;20269;-64
2021/10/29 04:54:04;;;;;;;3.03;2.77;;;;;;;;;;5047236;28;20201;-64
2021/10/29 04:56:35;;;;;;;2.60;2.40;;;;;;;;;;5061852;28;20228;-65
2021/10/29 04:59:05;;;;;;;3.10;2.80;;;;;;;;;;5066903;28;20190;-64
2021/10/29 05:01:35;;;;;;;3.33;2.97;;;;;;;;;;5040290;28;20203;-64
2021/10/29 05:04:07;;;;;;;3.40;2.77;;;;;;;;;;5066706;28;20201;-64
2021/10/29 05:06:48;;;;;;;2.87;2.67;;;;;;;;;;5043634;28;20190;-64
2021/10/29 05:09:21;;;;;;;3.17;2.90;;;;;;;;;;5039956;28;20221;-64
2021/10/29 05:11:54;;;;;;;3.50;3.20;;;;;;;;;;5052577;28;20184;-64
2021/10/29 05:14:26;;;;;;;3.23;2.93;;;;;;;;;;5056240;28;20551;-65
2021/10/29 05:16:57;;;;;;;3.40;3.10;;;;;;;;;;5067942;28;20951;-64
2021/10/29 05:19:28;;;;;;;3.30;3.00;;;;;;;;;;5067587;28;20202;-64
2021/10/29 05:21:59;;;;;;;3.63;3.03;;;;;;;;;;5062574;28;20193;-64
2021/10/29 05:24:32;;;;;;;3.57;3.27;;;;;;;;;;5061797;28;20245;-65
2021/10/29 05:27:06;;;;;;;3.60;2.90;;;;;;;;;;5034409;28;20222;-64
2021/10/29 05:29:35;;;;;;;3.73;3.33;;;;;;;;;;5039486;28;20217;-64
2021/10/29 05:32:03;;;;;;;4.50;3.00;;;;;;;;;;5044780;28;20197;-64
2021/10/29 05:34:36;;;;;;;3.40;3.10;;;;;;;;;;5046844;28;20597;-64
2021/10/29 05:37:06;;;;;;;3.83;2.93;;;;;;;;;;5044327;28;20229;-65
2021/10/29 05:39:53;;;;;;;3.30;3.00;;;;;;;;;;5039915;28;20249;-65
2021/10/29 05:42:23;;;;;;;3.03;2.73;;;;;;;;;;5043377;28;20209;-65
2021/10/29 05:44:55;;;;;;;3.40;3.10;;;;;;;;;;5027528;28;20201;-65
2021/10/29 05:47:26;;;;;;;3.20;2.90;;;;;;;;;;5045848;28;20194;-64
2021/10/29 05:50:12;;;;;;;3.70;3.17;;;;;;;;;;5038984;28;20199;-65
2021/10/29 05:52:46;;;;;;;4.63;3.13;;;;;;;;;;5047824;28;20694;-65
2021/10/29 05:55:21;;;;;;;3.33;3.03;;;;;;;;;;5030591;28;20673;-64
2021/10/29 05:57:51;;;;;;;3.27;2.97;;;;;;;;;;5042425;28;20199;-66
2021/10/29 06:00:29;;;;;;;3.73;3.43;;;;;;;;;;5040204;28;20223;-65
2021/10/29 06:03:06;;;;;;;4.77;3.13;;;;;;;;;;5030964;28;20206;-64
2021/10/29 06:05:37;;;;;;;3.70;3.40;;;;;;;;;;5043828;28;20194;-64
2021/10/29 06:08:09;;;;;;;3.27;2.97;;;;;;;;;;5048699;28;20202;-64
2021/10/29 06:10:41;;;;;;;3.40;3.10;;;;;;;;;;5032690;28;20197;-64
2021/10/29 06:13:15;;;;;;;3.90;3.27;;;;;;;;;;5042992;28;20258;-64
2021/10/29 06:16:06;;;;;;;4.83;3.17;;;;;;;;;;5050880;28;20221;-64
2021/10/29 06:18:36;;;;;;;3.20;2.90;;;;;;;;;;5045373;28;20213;-64
2021/10/29 06:21:06;;;;;;;3.47;3.17;;;;;;;;;;5054591;28;20285;-65
2021/10/29 06:24:01;;;;;;;3.60;3.30;;;;;;;;;;5043873;28;20673;-66
2021/10/29 06:26:38;;;;;;;3.67;3.30;;;;;;;;;;5053369;28;20240;-64
2021/10/29 06:29:09;;;;;;;4.33;3.17;;;;;;;;;;5059109;28;20739;-64
2021/10/29 06:31:38;;;;;;;3.70;3.23;;;;;;;;;;5067612;28;20233;-65
2021/10/29 06:34:09;;;;;;;3.80;3.40;;;;;;;;;;5062805;28;20213;-65
2021/10/29 06:36:38;;;;;;;3.53;3.23;;;;;;;;;;5064811;28;20668;-69
2021/10/29 06:39:10;;;;;;;3.60;3.27;;;;;;;;;;5041723;28;20205;-66
2021/10/29 06:41:38;;;;;;;3.67;3.10;;;;;;;;;;5078772;28;20186;-63
2021/10/29 06:44:25;;;;;;;3.70;3.23;;;;;;;;;;5063196;28;20543;-63
2021/10/29 06:52:05;;;;;;;4.27;3.07;;;;;;;;;;5059317;28;20225;-64
2021/10/29 07:01:45;;;;;;;3.67;3.37;;;;;;;;;;5060660;28;20237;-66
2021/10/29 07:41:09;;;;;;;3.00;2.70;;;;;;;;;;5051128;28;20774;-64
2021/10/29 07:43:48;;;;;;;3.60;3.30;;;;;;;;;;5052700;28;20205;-64
2021/10/29 07:46:24;;;;;;;4.07;2.90;;;;;;;;;;5048437;28;20633;-64
2021/10/29 07:48:54;;;;;;;3.90;2.90;;;;;;;;;;5060825;28;20232;-64
2021/10/29 07:51:29;;;;;;;3.00;2.80;;;;;;;;;;5047321;28;20692;-66
2021/10/29 07:54:01;;;;;;;3.23;2.93;;;;;;;;;;5043674;28;20233;-66
2021/10/29 07:56:34;;;;;;;3.87;3.40;;;;;;;;;;5030034;28;20275;-64
2021/10/29 07:59:23;;;;;;;2.87;2.67;;;;;;;;;;5021771;28;20312;-64
2021/10/29 08:02:05;;;;;;;3.17;2.87;;;;;;;;;;5025946;28;20289;-64
2021/10/29 08:04:36;;;;;;;3.17;2.90;;;;;;;;;;5052547;28;20232;-64
2021/10/29 08:07:07;;;;;;;3.37;3.07;;;;;;;;;;5047611;28;20199;-64
2021/10/29 08:09:37;;;;;;;3.50;2.97;;;;;;;;;;5031700;28;20234;-64
2021/10/29 08:12:08;;;;;;;3.87;3.33;;;;;;;;;;5043262;28;20545;-66
2021/10/29 08:14:39;;;;;;;3.60;3.30;;;;;;;;;;5057093;28;20679;-66
2021/10/29 08:17:09;;;;;;;4.83;3.30;;;;;;;;;;5047364;28;20189;-66
2021/10/29 08:19:54;;;;;;;3.20;2.90;;;;;;;;;;5043962;28;20616;-66
2021/10/29 08:22:41;;;;;;;3.07;2.77;;;;;;;;;;5046977;28;20234;-66
2021/10/29 08:25:15;;;;;;;3.90;2.77;;;;;;;;;;5025871;28;20233;-63
2021/10/29 08:27:46;;;;;;;5.03;3.20;;;;;;;;;;5060114;28;20194;-63
2021/10/29 08:30:17;;;;;;;3.90;3.40;;;;;;;;;;5064479;28;20276;-64
2021/10/29 08:32:47;;;;;;;3.13;2.93;;;;;;;;;;5062882;28;20584;-63
2021/10/29 08:35:19;;;;;;;3.67;3.37;;;;;;;;;;5063937;28;20201;-63
2021/10/29 08:37:52;;;;;;;3.93;3.63;;;;;;;;;;5044557;28;20648;-63
2021/10/29 08:40:25;;;;;;;4.53;3.00;;;;;;;;;;5062199;28;20201;-64
2021/10/29 08:43:03;;;;;;;3.50;2.70;;;;;;;;;;5060317;28;20193;-64
2021/10/29 08:45:37;;;;;;;3.60;3.10;;;;;;;;;;5065192;28;20193;-63
2021/10/29 08:48:08;;;;;;;4.80;3.10;;;;;;;;;;5060807;28;20218;-63
2021/10/29 08:50:48;;;;;;;3.50;3.10;;;;;;;;;;5047257;28;20640;-64
2021/10/29 08:53:21;;;;;;;4.40;3.57;;;;;;;;;;5062687;28;20569;-64
2021/10/29 08:55:53;;;;;;;3.30;3.00;;;;;;;;;;5057671;28;20225;-66
2021/10/29 08:58:34;;;;;;;4.10;3.10;;;;;;;;;;5069557;28;20221;-66
2021/10/29 09:01:09;;;;;;;3.77;2.90;;;;;;;;;;5054105;28;20198;-64
2021/10/29 09:03:59;;;;;;;3.77;3.47;;;;;;;;;;5058674;28;20214;-64
2021/10/29 09:09:33;;;;;;;3.90;3.30;;;;;;;;;;5062979;28;20197;-64
2021/10/29 09:32:04;;;;;;;4.23;3.43;;;;;;;;;;5050634;28;20186;-66
2021/10/29 09:34:36;;;;;;;4.67;3.57;;;;;;;;;;5053916;28;20297;-66
2021/10/29 09:37:08;;;;;;;3.93;3.50;;;;;;;;;;5053178;28;20214;-66
2021/10/29 09:39:38;;;;;;;3.30;2.83;;;;;;;;;;5056575;28;20245;-66
2021/10/29 09:42:12;;;;;;;3.53;3.23;;;;;;;;;;5061579;28;20536;-63
2021/10/29 09:44:53;;;;;;;5.53;3.93;;;;;;;;;;5063145;28;20205;-63
2021/10/29 09:47:29;;;;;;;3.67;2.80;;;;;;;;;;5060938;28;20217;-66
2021/10/29 09:50:12;;;;;;;3.27;2.97;;;;;;;;;;5056788;28;20685;-66
2021/10/29 09:55:21;;;;;;;3.40;3.10;;;;;;;;;;5061383;28;20804;-64
2021/10/29 09:57:55;;;;;;;3.07;2.87;;;;;;;;;;5060478;28;20186;-64
2021/10/29 10:00:58;;;;;;;4.00;2.83;;;;;;;;;;5057454;28;20224;-66
2021/10/29 10:03:32;;;;;;;3.73;2.77;;;;;;;;;;5052890;28;20660;-66
2021/10/29 10:06:06;;;;;;;3.10;2.80;;;;;;;;;;5058887;28;20215;-66
2021/10/29 10:08:42;;;;;;;4.40;3.30;;;;;;;;;;5036870;28;20673;-66
2021/10/29 10:11:19;;;;;;;3.37;2.90;;;;;;;;;;5051190;28;20197;-64
2021/10/29 10:13:55;;;;;;;3.97;2.87;;;;;;;;;;5064563;28;20233;-64
2021/10/29 10:16:34;;;;;;;2.83;2.57;;;;;;;;;;5059449;28;20237;-64
2021/10/29 10:19:09;;;;;;;3.53;2.90;;;;;;;;;;5060238;28;20209;-64
2021/10/29 10:21:44;;;;;;;3.97;3.40;;;;;;;;;;5058852;28;20198;-66
2021/10/29 10:24:32;;;;;;;3.73;3.03;;;;;;;;;;5061245;28;20300;-66
2021/10/29 10:27:33;;;;;;;4.63;3.17;;;;;;;;;;5034705;28;20225;-66
2021/10/29 10:30:36;;;;;;;3.97;3.57;;;;;;;;;;5037412;28;20254;-64
2021/10/29 10:47:14;;;;;;;4.97;3.27;;;;;;;;;;5049899;28;20198;-65
2021/10/29 10:49:51;;;;;;;4.37;2.90;;;;;;;;;;5040719;28;20669;-66
2021/10/29 10:52:26;;;;;;;3.83;2.97;;;;;;;;;;5041870;28;20305;-66
2021/10/29 10:55:15;;;;;;;4.97;3.47;;;;;;;;;;5041952;28;20575;-63
2021/10/29 11:01:09;;;;;;;2.80;2.60;;;;;;;;;;5006780;28;20202;-64
2021/10/29 11:04:54;;;;;;;4.10;3.13;;;;;;;;;;5042357;28;20281;-64
2021/10/29 11:12:44;;;;;;;3.53;2.93;;;;;;;;;;5034852;28;20223;-64
2021/10/29 11:15:24;;;;;;;3.07;2.63;;;;;;;;;;5042619;28;20692;-65
2021/10/29 11:18:28;;;;;;;3.17;2.77;;;;;;;;;;5039618;28;20522;-66
2021/10/29 11:21:38;;;;;;;2.80;2.60;;;;;;;;;;5045598;28;20230;-66
2021/10/29 11:24:08;;;;;;;3.30;2.80;;;;;;;;;;5036973;28;20198;-66
2021/10/29 11:26:44;;;;;;;5.00;2.87;;;;;;;;;;5032954;28;20286;-65
2021/10/29 11:29:15;;;;;;;6.60;3.37;;;;;;;;;;5040997;28;20279;-65
2021/10/29 11:31:49;;;;;;;11.27;3.33;;;;;;;;;;5053736;28;20198;-65
2021/10/29 11:34:19;;;;;;;8.77;3.07;;;;;;;;;;5049872;28;20202;-65
2021/10/29 11:36:54;;;;;;;8.57;3.63;;;;;;;;;;5051482;28;20283;-65
2021/10/29 11:39:35;;;;;;;8.33;3.10;;;;;;;;;;5059152;28;20186;-65
2021/10/29 11:42:05;;;;;;;7.93;3.27;;;;;;;;;;5052310;28;20198;-65
2021/10/29 11:44:41;;;;;;;8.20;3.13;;;;;;;;;;5061338;28;20311;-65
2021/10/29 11:47:21;;;;;;;13.47;3.90;;;;;;;;;;5067130;28;20210;-65
2021/10/29 11:49:52;;;;;;;6.97;2.90;;;;;;;;;;5051966;28;20305;-65
2021/10/29 11:52:22;;;;;;;5.90;3.77;;;;;;;;;;5062830;28;20209;-64
2021/10/29 11:54:54;;;;;;;7.97;4.20;;;;;;;;;;5060553;28;20577;-65
2021/10/29 11:57:48;;;;;;;8.70;4.00;;;;;;;;;;5065559;28;20201;-64
2021/10/29 12:00:40;;;;;;;9.23;4.57;;;;;;;;;;5049824;28;20214;-64
2021/10/29 12:09:28;;;;;;;6.60;4.10;;;;;;;;;;5004487;28;20304;-64
2021/10/29 12:12:05;;;;;;;5.40;4.00;;;;;;;;;;5055722;28;21213;-64
2021/10/29 12:14:43;;;;;;;4.90;4.13;;;;;;;;;;5062374;28;20216;-64
2021/10/29 12:17:25;;;;;;;5.23;4.30;;;;;;;;;;5041711;28;20279;-64
2021/10/29 12:20:00;;;;;;;5.40;4.53;;;;;;;;;;5050812;28;20528;-64
2021/10/29 12:22:46;;;;;;;7.10;3.83;;;;;;;;;;5041364;28;20263;-64
2021/10/29 12:25:41;;;;;;;11.67;3.90;;;;;;;;;;5039957;28;20233;-64
2021/10/29 12:28:18;;;;;;;10.47;3.93;;;;;;;;;;5034719;28;21021;-64
2021/10/29 13:01:26;;;;;;;3.37;2.77;;;;;;;;;;5061142;28;20204;-64
2021/10/29 13:02:25;;;;;;;6.73;2.60;;;;;;;;;;5057485;28;20209;-64
2021/10/29 13:05:10;;;;;;;3.43;2.60;;;;;;;;;;5051840;28;20210;-64
2021/10/29 13:07:44;;;;;;;3.80;3.03;;;;;;;;;;5048026;28;20205;-63
2021/10/29 13:10:17;;;;;;;3.97;3.17;;;;;;;;;;5057790;28;20275;-64
2021/10/29 13:13:14;;;;;;;4.37;2.40;;;;;;;;;;5039723;28;20283;-64
2021/10/29 13:15:49;;;;;;;3.83;2.60;;;;;;;;;;5053669;28;20566;-63
2021/10/29 13:18:25;;;;;;;5.43;2.20;;;;;;;;;;5063777;28;20685;-63
2021/10/29 13:26:42;;;;;;;3.73;2.50;;;;;;;;;;5053400;28;20706;-64
2021/10/29 14:28:33;;;;;;;3.80;2.70;;;;;;;;;;5072700;28;20205;-64
2021/10/29 14:34:21;;;;;;;3.27;2.40;;;;;;;;;;5045093;28;20239;-64
2021/10/29 14:37:14;;;;;;;3.63;2.57;;;;;;;;;;5061454;28;20625;-64
2021/10/29 14:39:59;;;;;;;5.13;2.43;;;;;;;;;;5059298;28;20279;-64
2021/10/29 14:42:41;;;;;;;5.83;2.57;;;;;;;;;;5050450;28;20197;-64
2021/10/29 14:45:34;;;;;;;4.40;2.20;;;;;;;;;;5051968;28;20201;-64
2021/10/29 15:05:19;;;;;;;3.77;2.63;;;;;;;;;;5063797;28;20194;-64
2021/10/29 15:27:20;;;;;;;4.10;2.77;;;;;;;;;;5055747;28;20220;-63
2021/10/29 15:30:02;;;;;;;6.40;2.50;;;;;;;;;;5064842;28;20311;-63
2021/10/29 15:44:09;;;;;;;8.83;3.10;;;;;;;;;;5053583;28;20198;-64
2021/10/29 15:47:01;;;;;;;6.40;3.03;;;;;;;;;;5052234;28;20205;-64
2021/10/29 15:49:40;;;;;;;7.63;2.83;;;;;;;;;;5063936;28;20216;-64
2021/10/29 15:52:16;;;;;;;4.57;2.60;;;;;;;;;;5058020;28;20202;-65
2021/10/29 15:54:53;;;;;;;4.77;2.90;;;;;;;;;;5045546;28;20228;-67
2021/10/29 15:57:26;;;;;;;4.43;2.57;;;;;;;;;;5063660;28;20197;-66
2021/10/29 16:03:04;;;;;;;5.17;2.47;;;;;;;;;;4982675;28;20756;-67
2021/10/29 16:17:13;;;;;;;9.00;3.07;;;;;;;;;;5055832;28;20210;-67
2021/10/29 16:19:43;;;;;;;2.80;2.13;;;;;;;;;;5061852;28;20558;-67
2021/10/29 16:22:39;;;;;;;2.50;2.23;;;;;;;;;;5056843;28;20221;-67
2021/10/29 16:25:14;;;;;;;4.27;2.60;;;;;;;;;;5063386;28;20260;-66
2021/10/29 16:27:55;;;;;;;2.30;2.10;;;;;;;;;;5053556;28;20201;-66
2021/10/29 16:30:31;;;;;;;3.67;2.07;;;;;;;;;;5049019;28;20198;-67
2021/10/29 16:33:23;;;;;;;5.70;2.40;;;;;;;;;;5044063;28;20208;-66
2021/10/29 16:35:53;;;;;;;3.90;2.07;;;;;;;;;;5061044;28;20218;-66
2021/10/29 16:38:26;;;;;;;4.27;2.50;;;;;;;;;;5056467;28;20210;-67
2021/10/29 16:40:56;;;;;;;3.27;2.17;;;;;;;;;;5047433;28;20660;-68
2021/10/29 16:43:26;;;;;;;3.20;1.90;;;;;;;;;;5061760;28;20221;-68
2021/10/29 16:45:58;;;;;;;3.23;2.30;;;;;;;;;;5058154;28;20600;-68
2021/10/29 16:48:29;;;;;;;4.53;2.30;;;;;;;;;;5054313;28;20206;-68
2021/10/29 16:51:02;;;;;;;3.47;2.63;;;;;;;;;;5060243;28;20208;-65
2021/10/29 16:53:33;;;;;;;3.00;2.20;;;;;;;;;;5060535;28;20702;-65
2021/10/29 16:56:05;;;;;;;4.53;2.50;;;;;;;;;;5055680;28;20230;-65
2021/10/29 16:58:36;;;;;;;4.17;2.50;;;;;;;;;;5058690;28;20209;-65
2021/10/29 17:01:08;;;;;;;2.40;2.00;;;;;;;;;;5059735;28;20217;-65
2021/10/29 17:03:42;;;;;;;4.20;2.37;;;;;;;;;;5061011;28;20205;-65
2021/10/29 17:06:15;;;;;;;3.33;2.40;;;;;;;;;;5056137;28;20217;-65
2021/10/29 17:08:47;;;;;;;3.97;2.40;;;;;;;;;;5062039;28;20204;-65
2021/10/29 17:11:17;;;;;;;4.00;2.43;;;;;;;;;;5064426;28;20209;-66
2021/10/29 17:13:47;;;;;;;2.83;2.53;;;;;;;;;;5058616;28;20194;-65
2021/10/29 17:16:25;;;;;;;2.50;2.27;;;;;;;;;;5056380;28;20229;-65
2021/10/29 17:18:57;;;;;;;3.33;2.40;;;;;;;;;;5053488;28;20201;-64
2021/10/29 17:21:27;;;;;;;3.33;2.30;;;;;;;;;;5061952;28;20745;-65
2021/10/29 17:24:03;;;;;;;2.57;1.83;;;;;;;;;;5061837;28;20192;-64
2021/10/29 17:26:35;;;;;;;2.50;2.30;;;;;;;;;;5065868;28;20313;-65
2021/10/29 17:29:21;;;;;;;4.20;2.10;;;;;;;;;;5066150;28;20276;-65
2021/10/29 17:32:15;;;;;;;3.77;2.73;;;;;;;;;;5049687;28;20288;-64
2021/10/29 17:34:46;;;;;;;3.47;2.60;;;;;;;;;;5067790;28;20197;-64
2021/10/29 17:37:17;;;;;;;4.17;2.80;;;;;;;;;;5056202;28;20533;-64
2021/10/29 17:39:46;;;;;;;3.03;2.30;;;;;;;;;;5065073;28;20194;-66
2021/10/29 17:42:20;;;;;;;6.33;2.83;;;;;;;;;;5057783;28;20199;-66
2021/10/29 17:44:52;;;;;;;3.67;2.60;;;;;;;;;;5063163;28;20205;-66
2021/10/29 17:47:24;;;;;;;3.67;2.77;;;;;;;;;;5061597;28;20204;-66
2021/10/29 17:49:56;;;;;;;4.60;2.43;;;;;;;;;;5030873;28;20221;-66
2021/10/29 17:52:26;;;;;;;3.60;2.63;;;;;;;;;;5059709;28;20282;-66
2021/10/29 17:54:59;;;;;;;3.83;2.70;;;;;;;;;;5064946;28;20202;-66
2021/10/29 17:57:30;;;;;;;4.30;2.73;;;;;;;;;;5061510;28;20919;-66
2021/10/29 17:59:59;;;;;;;5.60;2.87;;;;;;;;;;5049397;28;20863;-65
2021/10/29 18:02:35;;;;;;;5.47;2.93;;;;;;;;;;5045175;28;20189;-65
2021/10/29 18:05:10;;;;;;;3.83;2.87;;;;;;;;;;5064191;28;20197;-65
2021/10/29 18:07:44;;;;;;;4.47;2.87;;;;;;;;;;5044093;28;20190;-63
2021/10/29 18:10:13;;;;;;;4.27;2.67;;;;;;;;;;5065109;28;20208;-66
2021/10/29 18:12:47;;;;;;;3.70;2.87;;;;;;;;;;5065637;28;20265;-64
2021/10/29 18:15:17;;;;;;;3.80;2.63;;;;;;;;;;5067583;28;20201;-64
2021/10/29 18:17:55;;;;;;;7.13;2.57;;;;;;;;;;5060173;28;20214;-64
2021/10/29 18:20:25;;;;;;;2.97;2.53;;;;;;;;;;5065874;28;20205;-64
2021/10/29 18:22:57;;;;;;;4.03;3.10;;;;;;;;;;5042885;28;20206;-64
2021/10/29 18:25:28;;;;;;;4.80;2.67;;;;;;;;;;5059873;28;20237;-64
2021/10/29 18:27:58;;;;;;;4.57;2.50;;;;;;;;;;5066790;28;20661;-64
2021/10/29 18:30:29;;;;;;;4.40;3.00;;;;;;;;;;5054873;28;20210;-64
2021/10/29 18:33:03;;;;;;;4.83;3.20;;;;;;;;;;5070906;28;20248;-64
2021/10/29 18:35:34;;;;;;;3.83;2.80;;;;;;;;;;5064550;28;20229;-65
2021/10/29 18:38:07;;;;;;;2.40;2.20;;;;;;;;;;5070120;28;20651;-65
2021/10/29 18:40:47;;;;;;;3.90;2.70;;;;;;;;;;5069806;28;20200;-65
2021/10/29 18:43:17;;;;;;;3.23;2.70;;;;;;;;;;5057946;28;20205;-65
2021/10/29 18:45:52;;;;;;;2.90;2.43;;;;;;;;;;5047640;28;20204;-65
2021/10/29 18:48:23;;;;;;;2.87;2.40;;;;;;;;;;5063345;28;20847;-65
2021/10/29 18:50:55;;;;;;;5.47;2.67;;;;;;;;;;5046661;28;20217;-65
2021/10/29 18:53:28;;;;;;;3.63;2.40;;;;;;;;;;5070744;28;20213;-65
2021/10/29 18:56:00;;;;;;;3.17;2.50;;;;;;;;;;5047279;28;20222;-65
2021/10/29 18:58:41;;;;;;;2.30;2.10;;;;;;;;;;5068418;28;20878;-65
2021/10/29 19:01:26;;;;;;;3.53;2.53;;;;;;;;;;5041674;28;20223;-65
2021/10/29 19:04:00;;;;;;;2.60;2.40;;;;;;;;;;5064845;28;20329;-65
2021/10/29 19:06:30;;;;;;;3.20;2.30;;;;;;;;;;5040375;28;20213;-65
2021/10/29 19:09:04;;;;;;;2.93;2.43;;;;;;;;;;5052312;28;20835;-65
2021/10/29 19:11:45;;;;;;;2.57;2.37;;;;;;;;;;5054928;28;20219;-65
2021/10/29 19:14:22;;;;;;;4.93;2.90;;;;;;;;;;5064076;28;20237;-65
2021/10/29 19:16:55;;;;;;;3.17;2.50;;;;;;;;;;5065665;28;20216;-65
2021/10/29 19:19:40;;;;;;;2.90;2.20;;;;;;;;;;5069207;28;20200;-65
2021/10/29 19:22:14;;;;;;;2.80;2.37;;;;;;;;;;5051659;28;20186;-65
2021/10/29 19:24:50;;;;;;;3.43;2.30;;;;;;;;;;5065396;28;20220;-64
2021/10/29 19:27:20;;;;;;;2.30;1.97;;;;;;;;;;5047090;28;20200;-65
2021/10/29 19:29:57;;;;;;;2.87;2.30;;;;;;;;;;5041684;28;20213;-65
2021/10/29 19:32:31;;;;;;;2.70;2.50;;;;;;;;;;5064116;28;20200;-65
2021/10/29 19:35:11;;;;;;;2.97;2.40;;;;;;;;;;5050613;28;20210;-65
2021/10/29 19:40:33;;;;;;;2.37;2.17;;;;;;;;;;5041621;28;20247;-66
2021/10/29 19:43:05;;;;;;;7.50;2.77;;;;;;;;;;5064014;28;20624;-66
2021/10/29 19:45:36;;;;;;;4.30;2.90;;;;;;;;;;5052792;28;20217;-65
2021/10/29 19:48:06;;;;;;;5.87;2.57;;;;;;;;;;5062509;28;20206;-65
2021/10/29 19:50:49;;;;;;;7.23;2.20;;;;;;;;;;5056456;28;20297;-65
2021/10/29 19:53:34;;;;;;;3.23;2.40;;;;;;;;;;5051207;28;20196;-65
2021/10/29 19:56:04;;;;;;;3.37;2.70;;;;;;;;;;5055044;28;20751;-64
2021/10/29 19:58:34;;;;;;;3.23;1.83;;;;;;;;;;5057654;28;20228;-64